Time;durP1;ratioP1;P1;durP2;ratioP2;P2;SDS_P1;SDS_P2;PMS_P1;PMS_P2;Temp;Humidity;BMP_temperature;BMP_pressure;BME280_temperature;BME280_humidity;BME280_pressure;Samples;Min_cycle;Max_cycle;Signal;HPM_P1;HPM_P2
2023/12/01 00:01:06;;;;;;;17.30;6.80;;;;;;;-1.12;89.81;100002.72;5064038;28;20120;-63
2023/12/01 00:03:32;;;;;;;18.63;6.93;;;;;;;-1.10;89.79;100014.13;5047452;28;20048;-63
2023/12/01 00:05:57;;;;;;;16.23;6.23;;;;;;;-1.10;89.36;100004.66;5047264;28;20256;-62
2023/12/01 00:08:22;;;;;;;20.17;6.77;;;;;;;-1.11;89.30;100009.72;5046770;28;20108;-64
2023/12/01 00:10:48;;;;;;;19.37;7.47;;;;;;;-1.11;89.32;100010.63;5046478;28;20041;-63
2023/12/01 00:13:13;;;;;;;16.48;6.63;;;;;;;-1.10;89.46;100015.00;5047089;28;20124;-61
2023/12/01 00:15:38;;;;;;;16.33;6.57;;;;;;;-1.07;89.70;100012.63;5047019;28;20037;-63
2023/12/01 00:18:04;;;;;;;16.67;6.23;;;;;;;-1.04;89.64;100011.97;5047075;28;20468;-63
2023/12/01 00:20:29;;;;;;;18.13;6.40;;;;;;;-1.03;89.34;100013.75;5046364;28;20097;-61
2023/12/01 00:22:55;;;;;;;18.23;6.63;;;;;;;-1.02;89.39;100015.56;5046539;28;20437;-63
2023/12/01 00:25:20;;;;;;;18.30;6.45;;;;;;;-1.06;89.49;100010.97;5046572;28;20140;-63
2023/12/01 00:27:45;;;;;;;18.50;6.80;;;;;;;-1.10;89.57;100012.44;5046522;28;20128;-63
2023/12/01 00:30:11;;;;;;;16.80;7.73;;;;;;;-1.14;90.04;100007.81;5044755;28;20052;-64
2023/12/01 00:32:36;;;;;;;19.60;6.67;;;;;;;-1.13;90.14;100019.94;5045373;28;20038;-63
2023/12/01 00:35:01;;;;;;;19.27;7.97;;;;;;;-1.12;90.39;100021.75;5046351;28;20029;-61
2023/12/01 00:37:27;;;;;;;17.50;7.03;;;;;;;-1.06;90.25;100017.03;5046470;28;20699;-63
2023/12/01 00:39:52;;;;;;;17.33;7.07;;;;;;;-1.04;89.76;100006.78;5045446;28;20075;-63
2023/12/01 00:42:18;;;;;;;14.33;5.93;;;;;;;-1.03;89.76;100018.94;5046249;28;20448;-62
2023/12/01 00:44:45;;;;;;;16.97;6.40;;;;;;;-1.01;89.46;100022.56;5045341;28;20049;-63
2023/12/01 00:47:10;;;;;;;16.70;5.75;;;;;;;-0.98;89.55;100022.78;5045245;28;20044;-63
2023/12/01 00:49:35;;;;;;;17.77;6.43;;;;;;;-0.96;89.17;100019.53;5045457;28;20025;-63
2023/12/01 00:52:01;;;;;;;20.90;7.40;;;;;;;-0.97;89.25;100022.00;5046165;28;20025;-61
2023/12/01 00:54:26;;;;;;;17.80;7.33;;;;;;;-0.96;89.03;100018.63;5053360;28;20303;-63
2023/12/01 00:56:52;;;;;;;21.00;7.53;;;;;;;-0.95;89.52;100030.81;5045932;28;20416;-62
2023/12/01 01:03:59;;;;;;;16.60;6.60;;;;;;;-0.94;89.34;100035.19;5067064;28;20368;-63
2023/12/01 01:06:25;;;;;;;18.93;6.33;;;;;;;-0.95;89.58;100033.41;5067036;28;20552;-62
2023/12/01 01:08:50;;;;;;;17.77;7.40;;;;;;;-0.92;89.42;100031.91;5065686;28;20087;-62
2023/12/01 01:11:16;;;;;;;20.20;6.70;;;;;;;-0.92;89.49;100031.91;5062515;28;20560;-63
2023/12/01 01:13:41;;;;;;;18.10;6.90;;;;;;;-0.92;89.47;100037.09;5045841;28;20048;-63
2023/12/01 01:16:08;;;;;;;17.47;7.10;;;;;;;-0.94;89.33;100032.63;5047240;28;20454;-62
2023/12/01 01:18:33;;;;;;;19.73;7.63;;;;;;;-0.91;89.77;100044.09;5046707;28;20044;-63
2023/12/01 01:20:58;;;;;;;18.57;7.10;;;;;;;-0.88;89.97;100043.41;5046550;28;20029;-62
2023/12/01 01:23:24;;;;;;;19.52;7.75;;;;;;;-0.86;90.03;100044.44;5046776;28;20034;-62
2023/12/01 01:25:49;;;;;;;16.50;6.97;;;;;;;-0.87;90.17;100045.22;5046585;28;20124;-62
2023/12/01 01:28:15;;;;;;;16.90;6.70;;;;;;;-0.86;90.33;100041.84;5047270;28;20040;-62
2023/12/01 01:30:40;;;;;;;17.43;7.27;;;;;;;-0.82;90.17;100041.28;5046701;28;20175;-63
2023/12/01 01:33:05;;;;;;;22.10;7.97;;;;;;;-0.80;90.64;100051.78;5045908;28;20045;-63
2023/12/01 01:35:31;;;;;;;21.27;7.25;;;;;;;-0.77;90.67;100050.28;5045814;28;20045;-63
2023/12/01 01:37:57;;;;;;;19.57;6.70;;;;;;;-0.75;90.32;100056.50;5045707;28;20121;-63
2023/12/01 01:40:22;;;;;;;17.23;7.40;;;;;;;-0.77;90.36;100047.72;5044815;28;20497;-64
2023/12/01 01:42:48;;;;;;;18.47;7.77;;;;;;;-0.78;90.52;100039.81;5046833;28;20117;-63
2023/12/01 01:45:13;;;;;;;23.60;6.80;;;;;;;-0.81;90.56;100050.88;5046756;28;20472;-63
2023/12/01 01:47:38;;;;;;;17.47;7.27;;;;;;;-0.82;90.92;100059.44;5046822;28;20104;-63
2023/12/01 01:50:06;;;;;;;22.63;9.23;;;;;;;-0.83;90.83;100052.44;5046240;28;20351;-63
2023/12/01 01:52:33;;;;;;;20.60;7.22;;;;;;;-0.81;90.99;100047.38;5046540;28;20508;-63
2023/12/01 01:54:58;;;;;;;15.83;6.37;;;;;;;-0.80;90.67;100046.59;5054247;28;20047;-63
2023/12/01 01:59:43;;;;;;;19.00;7.63;;;;;;;-0.89;90.20;100037.31;5107283;27;20391;-63
2023/12/01 02:02:08;;;;;;;18.63;6.82;;;;;;;-0.97;90.32;100041.03;5106590;28;20032;-63
2023/12/01 02:04:33;;;;;;;17.23;6.10;;;;;;;-1.05;90.50;100042.19;5106536;28;20051;-62
2023/12/01 02:06:59;;;;;;;15.33;6.97;;;;;;;-1.12;90.29;100051.94;5106680;28;20485;-63
2023/12/01 02:09:24;;;;;;;19.40;7.05;;;;;;;-1.18;90.62;100044.59;5105443;28;20559;-62
2023/12/01 02:11:50;;;;;;;15.80;6.50;;;;;;;-1.26;90.82;100044.81;5107538;28;20040;-62
2023/12/01 02:14:15;;;;;;;19.90;7.73;;;;;;;-1.34;90.71;100041.66;5106448;28;20445;-63
2023/12/01 02:16:45;;;;;;;19.63;8.00;;;;;;;-1.42;90.90;100046.25;5106305;28;20039;-62
2023/12/01 02:19:14;;;;;;;21.25;6.72;;;;;;;-1.50;91.06;100042.19;5106880;28;20039;-63
2023/12/01 02:21:47;;;;;;;22.20;7.60;;;;;;;-1.57;91.28;100039.91;5106137;28;20532;-62
2023/12/01 02:24:13;;;;;;;19.08;7.40;;;;;;;-1.71;91.33;100048.28;5107116;28;20055;-63
2023/12/01 02:26:39;;;;;;;17.95;6.80;;;;;;;-1.80;91.76;100055.34;5107678;28;20511;-63
2023/12/01 02:29:05;;;;;;;18.47;8.20;;;;;;;-1.89;92.00;100055.53;5106614;28;20040;-63
2023/12/01 02:31:31;;;;;;;19.33;7.57;;;;;;;-1.98;91.96;100053.91;5107162;28;20074;-63
2023/12/01 02:33:57;;;;;;;20.80;7.60;;;;;;;-2.06;92.55;100057.56;5107383;28;20478;-63
2023/12/01 02:36:23;;;;;;;19.08;6.70;;;;;;;-2.12;92.65;100059.69;5106069;28;20050;-62
2023/12/01 02:38:48;;;;;;;20.27;8.20;;;;;;;-2.18;92.95;100049.75;5106966;28;20118;-62
2023/12/01 02:41:15;;;;;;;18.73;7.23;;;;;;;-2.26;93.08;100043.97;5106652;28;20063;-61
2023/12/01 02:43:41;;;;;;;20.08;7.32;;;;;;;-2.32;93.09;100042.59;5106940;28;20058;-62
2023/12/01 02:46:06;;;;;;;20.63;8.80;;;;;;;-2.41;93.07;100042.75;5105735;28;20044;-62
2023/12/01 02:48:31;;;;;;;25.80;9.20;;;;;;;-2.48;93.13;100047.31;5105214;28;20028;-62
2023/12/01 02:50:57;;;;;;;18.40;7.67;;;;;;;-2.55;93.35;100045.91;5106239;28;20099;-62
2023/12/01 02:53:23;;;;;;;20.77;8.20;;;;;;;-2.64;93.43;100034.84;5108997;28;20170;-63
2023/12/01 02:55:49;;;;;;;22.52;8.45;;;;;;;-2.70;93.63;100044.66;5127850;27;20480;-63
2023/12/01 02:58:14;;;;;;;25.70;8.23;;;;;;;-2.72;93.70;100041.06;5106654;28;20040;-63
2023/12/01 03:00:42;;;;;;;19.42;8.32;;;;;;;-2.76;94.00;100044.16;5108310;28;20036;-63
2023/12/01 03:03:07;;;;;;;17.47;7.13;;;;;;;-2.80;93.27;100047.28;5106776;28;20051;-64
2023/12/01 03:07:52;;;;;;;18.92;8.07;;;;;;;-2.95;93.49;100049.50;5004163;28;20357;-61
2023/12/01 03:10:17;;;;;;;23.25;8.73;;;;;;;-3.03;93.70;100053.16;4982931;28;20038;-63
2023/12/01 03:12:44;;;;;;;21.63;8.48;;;;;;;-3.04;93.42;100061.69;4987325;28;20039;-63
2023/12/01 03:15:12;;;;;;;16.97;7.23;;;;;;;-3.06;93.01;100053.78;4983736;28;20042;-63
2023/12/01 03:17:38;;;;;;;17.80;7.43;;;;;;;-3.10;92.97;100058.59;4984906;28;20145;-63
2023/12/01 03:22:26;;;;;;;24.08;8.30;;;;;;;-3.19;92.67;100058.72;4991024;27;20404;-64
2023/12/01 03:24:53;;;;;;;22.07;7.80;;;;;;;-3.26;92.94;100064.19;4984390;28;20030;-62
2023/12/01 03:27:19;;;;;;;18.98;7.68;;;;;;;-3.30;93.07;100067.25;4984827;28;20793;-63
2023/12/01 03:29:46;;;;;;;22.40;8.43;;;;;;;-3.37;92.77;100074.38;4984115;28;20042;-62
2023/12/01 03:32:11;;;;;;;21.73;8.45;;;;;;;-3.44;92.58;100075.53;4983675;28;20058;-62
2023/12/01 03:34:36;;;;;;;21.97;8.13;;;;;;;-3.47;93.13;100072.69;4983459;28;20109;-63
2023/12/01 03:37:02;;;;;;;17.97;7.80;;;;;;;-3.50;93.17;100069.84;4983164;28;20026;-61
2023/12/01 03:39:27;;;;;;;19.47;8.23;;;;;;;-3.52;93.12;100082.63;4984204;28;20050;-63
2023/12/01 03:41:52;;;;;;;21.02;7.47;;;;;;;-3.52;93.21;100084.31;5002321;28;20083;-63
2023/12/01 03:44:18;;;;;;;19.50;7.03;;;;;;;-3.53;93.09;100082.50;4984564;28;20133;-63
2023/12/01 03:46:43;;;;;;;19.17;7.57;;;;;;;-3.56;92.72;100087.41;4983270;28;20038;-62
2023/12/01 03:49:09;;;;;;;17.93;7.07;;;;;;;-3.60;92.34;100081.06;4983768;28;20457;-62
2023/12/01 03:51:35;;;;;;;20.67;7.47;;;;;;;-3.61;92.25;100089.59;4980844;28;20030;-62
2023/12/01 03:54:00;;;;;;;17.70;5.83;;;;;;;-3.54;92.44;100096.16;4990844;28;20037;-62
2023/12/01 03:56:26;;;;;;;16.42;6.50;;;;;;;-3.52;91.81;100095.53;4985111;28;20030;-64
2023/12/01 03:58:54;;;;;;;16.00;5.83;;;;;;;-3.46;91.80;100090.00;4985611;28;20041;-63
2023/12/01 04:01:20;;;;;;;16.10;7.25;;;;;;;-3.44;91.20;100085.84;4983469;28;20031;-62
2023/12/01 04:03:45;;;;;;;15.60;5.77;;;;;;;-3.37;91.05;100087.28;4985111;28;20079;-62
2023/12/01 04:06:11;;;;;;;16.42;6.38;;;;;;;-3.33;91.03;100090.25;4984368;28;20034;-63
2023/12/01 04:08:37;;;;;;;15.17;6.10;;;;;;;-3.30;90.39;100087.00;4983209;28;20042;-63
2023/12/01 04:11:02;;;;;;;19.48;7.72;;;;;;;-3.29;90.81;100088.81;4983893;28;20042;-62
2023/12/01 04:13:28;;;;;;;19.77;7.17;;;;;;;-3.28;90.51;100096.69;4984537;28;20035;-63
2023/12/01 04:18:12;;;;;;;16.38;6.85;;;;;;;-3.28;89.91;100081.22;5075881;28;20426;-63
2023/12/01 04:20:38;;;;;;;14.23;6.07;;;;;;;-3.27;90.31;100089.88;5066703;28;20036;-64
2023/12/01 04:23:09;;;;;;;16.75;6.32;;;;;;;-3.28;90.05;100086.38;5047358;28;20044;-63
2023/12/01 04:25:36;;;;;;;16.65;5.78;;;;;;;-3.29;89.71;100084.56;5047942;28;20040;-62
2023/12/01 04:28:02;;;;;;;18.70;6.35;;;;;;;-3.32;90.15;100091.16;5047200;28;20124;-62
2023/12/01 04:30:27;;;;;;;14.17;6.00;;;;;;;-3.34;89.71;100084.94;5047071;28;20112;-63
2023/12/01 04:32:54;;;;;;;15.97;6.00;;;;;;;-3.38;90.36;100091.53;5047452;28;20040;-63
2023/12/01 04:35:21;;;;;;;13.23;5.07;;;;;;;-3.39;90.60;100091.41;5047514;28;20041;-63
2023/12/01 04:37:46;;;;;;;16.08;5.43;;;;;;;-3.41;90.54;100091.28;5048352;28;20444;-62
2023/12/01 04:40:14;;;;;;;14.50;6.03;;;;;;;-3.41;90.16;100092.97;5046970;28;20033;-62
2023/12/01 04:42:44;;;;;;;15.27;5.75;;;;;;;-3.45;90.06;100091.78;5047025;28;20087;-62
2023/12/01 04:45:11;;;;;;;16.75;5.57;;;;;;;-3.45;89.91;100096.94;5045866;28;20045;-62
2023/12/01 04:47:40;;;;;;;13.73;5.65;;;;;;;-3.47;90.05;100097.59;5046873;28;20033;-62
2023/12/01 04:50:12;;;;;;;19.43;6.33;;;;;;;-3.52;90.02;100094.63;5047075;28;20053;-62
2023/12/01 04:52:48;;;;;;;15.00;5.53;;;;;;;-3.57;90.28;100104.56;5047024;28;20390;-64
2023/12/01 04:55:15;;;;;;;19.02;6.25;;;;;;;-3.61;90.53;100107.66;5054303;28;20482;-62
2023/12/01 04:57:42;;;;;;;13.13;4.82;;;;;;;-3.61;90.28;100109.34;5046591;28;20676;-62
2023/12/01 05:00:25;;;;;;;16.10;5.57;;;;;;;-3.61;90.56;100102.50;5046022;28;20075;-62
2023/12/01 05:03:08;;;;;;;15.03;4.97;;;;;;;-3.64;90.44;100103.88;5046909;28;20037;-63
2023/12/01 05:05:37;;;;;;;14.07;4.85;;;;;;;-3.66;89.78;100096.03;5047265;28;20045;-62
2023/12/01 05:08:05;;;;;;;13.60;5.18;;;;;;;-3.69;90.04;100100.91;5046246;28;20033;-62
2023/12/01 05:10:32;;;;;;;15.40;5.88;;;;;;;-3.69;89.96;100110.34;5045877;28;20037;-62
2023/12/01 05:12:59;;;;;;;11.80;4.20;;;;;;;-3.69;90.16;100106.09;5046359;28;20536;-63
2023/12/01 05:15:27;;;;;;;17.23;4.97;;;;;;;-3.70;90.33;100111.13;5046224;28;20041;-64
2023/12/01 05:17:57;;;;;;;13.00;4.80;;;;;;;-3.69;90.21;100095.75;5045909;28;20505;-63
2023/12/01 05:20:27;;;;;;;12.90;4.43;;;;;;;-3.68;90.08;100105.31;5045670;28;20142;-62
2023/12/01 05:23:00;;;;;;;13.13;5.43;;;;;;;-3.70;90.29;100109.44;5046161;28;20040;-63
2023/12/01 05:25:28;;;;;;;15.30;4.70;;;;;;;-3.72;90.22;100098.09;5046000;28;20095;-64
2023/12/01 05:27:57;;;;;;;11.23;4.90;;;;;;;-3.66;90.62;100115.78;5041939;28;20045;-64
2023/12/01 05:30:24;;;;;;;11.57;5.03;;;;;;;-3.65;89.90;100105.56;5032321;28;20041;-63
2023/12/01 05:32:52;;;;;;;17.33;4.95;;;;;;;-3.62;89.82;100108.44;5032844;28;20134;-62
2023/12/01 05:35:19;;;;;;;11.45;4.47;;;;;;;-3.61;89.79;100111.91;5032573;28;20037;-61
2023/12/01 05:37:47;;;;;;;11.45;5.13;;;;;;;-3.58;90.04;100115.66;5032566;28;20065;-61
2023/12/01 05:40:14;;;;;;;11.17;3.77;;;;;;;-3.52;89.51;100115.28;5031967;28;20048;-61
2023/12/01 05:42:41;;;;;;;12.88;4.47;;;;;;;-3.49;89.54;100115.53;5032500;28;20034;-62
2023/12/01 05:45:11;;;;;;;12.95;4.95;;;;;;;-3.49;89.06;100115.53;5032518;28;20044;-61
2023/12/01 05:47:46;;;;;;;9.77;3.67;;;;;;;-3.49;89.42;100119.00;5032442;28;20056;-62
2023/12/01 05:50:20;;;;;;;12.70;5.03;;;;;;;-3.51;89.54;100118.00;5031924;28;20033;-62
2023/12/01 05:52:47;;;;;;;12.13;4.40;;;;;;;-3.51;89.38;100117.09;5032619;28;20030;-62
2023/12/01 05:55:20;;;;;;;11.68;4.32;;;;;;;-3.53;89.30;100129.84;5040105;28;20103;-62
2023/12/01 05:57:47;;;;;;;12.57;4.18;;;;;;;-3.51;89.88;100133.50;5032220;28;20064;-62
2023/12/01 06:00:17;;;;;;;12.10;4.88;;;;;;;-3.51;89.74;100132.56;5031934;28;20112;-61
2023/12/01 06:02:44;;;;;;;13.30;4.35;;;;;;;-3.47;89.87;100136.31;5032010;28;20034;-61
2023/12/01 06:05:14;;;;;;;11.17;4.70;;;;;;;-3.45;89.86;100137.38;5032404;28;20048;-61
2023/12/01 06:07:52;;;;;;;9.30;3.60;;;;;;;-3.42;89.90;100135.94;5032231;28;20029;-60
2023/12/01 06:10:18;;;;;;;12.90;4.93;;;;;;;-3.42;90.10;100135.94;5032023;28;20494;-64
2023/12/01 06:12:44;;;;;;;13.23;5.28;;;;;;;-3.42;89.85;100138.53;5032309;28;20152;-62
2023/12/01 06:15:12;;;;;;;10.57;3.93;;;;;;;-3.41;90.15;100140.34;5031644;28;20087;-61
2023/12/01 06:17:41;;;;;;;10.53;4.20;;;;;;;-3.35;90.01;100150.25;5031356;28;20296;-61
2023/12/01 06:20:17;;;;;;;12.75;4.80;;;;;;;-3.33;89.53;100154.78;5031449;28;20034;-62
2023/12/01 06:22:47;;;;;;;12.45;4.65;;;;;;;-3.31;89.22;100155.84;5031846;28;20044;-62
2023/12/01 06:25:14;;;;;;;12.38;4.68;;;;;;;-3.31;89.38;100157.50;5031718;28;20120;-61
2023/12/01 06:27:40;;;;;;;14.85;5.28;;;;;;;-3.32;89.54;100156.59;5031476;28;20176;-61
2023/12/01 06:30:13;;;;;;;15.67;4.43;;;;;;;-3.31;89.27;100163.59;5030874;28;20112;-61
2023/12/01 06:32:43;;;;;;;12.52;4.43;;;;;;;-3.28;89.66;100162.94;5031350;28;20025;-61
2023/12/01 06:35:16;;;;;;;13.02;6.35;;;;;;;-3.28;89.87;100158.66;5031622;28;20041;-62
2023/12/01 06:37:42;;;;;;;10.27;4.47;;;;;;;-3.27;89.56;100165.66;5031410;28;20021;-62
2023/12/01 06:40:11;;;;;;;13.07;4.60;;;;;;;-3.26;89.94;100156.22;5029957;28;20635;-62
2023/12/01 06:42:40;;;;;;;10.38;4.65;;;;;;;-3.26;89.64;100167.47;5031561;28;20041;-62
2023/12/01 06:45:06;;;;;;;13.65;4.47;;;;;;;-3.29;89.79;100167.19;5031537;28;20041;-61
2023/12/01 06:47:32;;;;;;;10.65;3.92;;;;;;;-3.28;90.01;100169.00;5031315;28;20044;-61
2023/12/01 06:49:57;;;;;;;9.93;3.83;;;;;;;-3.27;89.50;100168.22;5030768;28;20033;-63
2023/12/01 06:52:23;;;;;;;10.17;4.33;;;;;;;-3.29;89.52;100177.50;5031273;28;20045;-62
2023/12/01 06:54:48;;;;;;;12.57;4.72;;;;;;;-3.28;89.30;100173.25;5039028;28;20037;-63
2023/12/01 06:57:13;;;;;;;10.40;4.27;;;;;;;-3.30;89.05;100180.84;5031354;28;20137;-63
2023/12/01 06:59:39;;;;;;;15.43;4.87;;;;;;;-3.30;89.50;100183.44;5030581;28;20025;-61
2023/12/01 07:02:04;;;;;;;14.43;5.10;;;;;;;-3.33;88.98;100182.28;5031083;28;20116;-62
2023/12/01 07:04:32;;;;;;;12.43;3.90;;;;;;;-3.37;88.92;100188.88;5031170;28;20112;-61
2023/12/01 07:07:00;;;;;;;12.20;4.53;;;;;;;-3.38;89.68;100197.38;5031017;28;20034;-63
2023/12/01 07:09:29;;;;;;;13.43;4.55;;;;;;;-3.37;89.52;100195.72;5029954;28;20034;-62
2023/12/01 07:11:54;;;;;;;11.90;4.80;;;;;;;-3.40;89.79;100196.31;5032739;28;20032;-62
2023/12/01 07:14:23;;;;;;;8.53;3.57;;;;;;;-3.36;89.73;100213.91;5031320;28;20037;-62
2023/12/01 07:16:49;;;;;;;12.88;5.07;;;;;;;-3.33;89.42;100208.09;5031033;28;20068;-61
2023/12/01 07:19:14;;;;;;;10.25;4.05;;;;;;;-3.29;89.22;100213.66;5030237;28;20458;-62
2023/12/01 07:21:39;;;;;;;11.43;4.00;;;;;;;-3.25;89.04;100209.66;5030937;28;20033;-63
2023/12/01 07:24:07;;;;;;;10.33;3.90;;;;;;;-3.18;88.85;100215.50;5030736;28;20049;-63
2023/12/01 07:26:33;;;;;;;12.13;4.28;;;;;;;-3.10;88.73;100216.13;5031093;28;20029;-63
2023/12/01 07:29:00;;;;;;;11.57;4.63;;;;;;;-3.05;88.10;100220.91;5030502;28;20033;-63
2023/12/01 07:31:26;;;;;;;11.65;4.57;;;;;;;-3.02;88.25;100229.72;5030541;28;20041;-63
2023/12/01 07:33:52;;;;;;;13.85;5.20;;;;;;;-3.01;88.22;100237.59;5030625;28;20083;-62
2023/12/01 07:36:17;;;;;;;11.47;4.40;;;;;;;-2.98;88.17;100237.84;5030296;28;20041;-62
2023/12/01 07:38:43;;;;;;;14.87;5.00;;;;;;;-2.90;88.06;100230.75;5030117;28;20725;-61
2023/12/01 07:41:12;;;;;;;11.02;3.97;;;;;;;-2.84;88.05;100242.50;5030062;28;20052;-61
2023/12/01 07:43:40;;;;;;;10.70;3.92;;;;;;;-2.79;87.72;100245.50;5030583;28;20386;-61
2023/12/01 07:46:06;;;;;;;12.63;4.97;;;;;;;-2.75;87.45;100247.53;5030519;28;20442;-63
2023/12/01 07:48:32;;;;;;;18.75;5.95;;;;;;;-2.72;87.46;100240.06;5030068;28;20112;-63
2023/12/01 07:50:58;;;;;;;14.40;5.10;;;;;;;-2.67;87.77;100241.38;5029590;28;20108;-63
2023/12/01 07:53:24;;;;;;;11.83;4.60;;;;;;;-2.61;87.14;100247.03;5032439;28;20049;-61
2023/12/01 07:55:50;;;;;;;11.32;4.32;;;;;;;-2.55;87.05;100250.13;5035656;28;20064;-63
2023/12/01 07:58:17;;;;;;;11.03;4.30;;;;;;;-2.52;86.82;100252.09;5030813;28;20573;-63
2023/12/01 08:00:46;;;;;;;12.18;4.35;;;;;;;-2.53;86.78;100260.63;5030166;28;20109;-61
2023/12/01 08:03:12;;;;;;;13.13;5.78;;;;;;;-2.51;87.00;100264.22;5030066;28;20033;-63
2023/12/01 08:05:39;;;;;;;15.00;5.13;;;;;;;-2.47;86.95;100264.63;5030009;28;20088;-63
2023/12/01 08:08:04;;;;;;;12.43;4.60;;;;;;;-2.41;86.77;100265.13;5029940;28;20075;-63
2023/12/01 08:10:30;;;;;;;13.47;4.77;;;;;;;-2.35;86.42;100265.63;5029529;28;20429;-61
2023/12/01 08:12:56;;;;;;;11.87;4.83;;;;;;;-2.29;85.84;100267.84;5029867;28;20037;-61
2023/12/01 08:15:22;;;;;;;13.73;5.00;;;;;;;-2.25;85.73;100265.63;5030173;28;20383;-62
2023/12/01 08:17:47;;;;;;;14.55;4.47;;;;;;;-2.17;85.79;100273.13;5029751;28;20038;-61
2023/12/01 08:20:14;;;;;;;14.37;5.43;;;;;;;-2.08;85.64;100276.47;5029355;28;20041;-61
2023/12/01 08:22:43;;;;;;;10.95;4.50;;;;;;;-1.97;85.70;100275.66;5029942;28;20466;-62
2023/12/01 08:25:09;;;;;;;14.27;4.90;;;;;;;-1.94;85.20;100275.91;5029837;28;20375;-62
2023/12/01 08:27:34;;;;;;;11.63;4.53;;;;;;;-1.85;85.16;100281.84;5029970;28;20087;-62
2023/12/01 08:30:00;;;;;;;11.57;4.57;;;;;;;-1.69;84.83;100282.31;5029054;28;20037;-61
2023/12/01 08:32:25;;;;;;;11.40;4.50;;;;;;;-1.56;83.95;100290.28;5029633;28;20041;-61
2023/12/01 08:34:51;;;;;;;13.57;5.23;;;;;;;-1.51;83.65;100288.06;5029967;28;20045;-62
2023/12/01 08:37:17;;;;;;;12.17;5.00;;;;;;;-1.44;83.87;100278.34;5029694;28;20030;-63
2023/12/01 08:39:43;;;;;;;15.53;5.73;;;;;;;-1.34;83.43;100279.97;5028880;28;20700;-62
2023/12/01 08:42:09;;;;;;;11.73;4.20;;;;;;;-1.22;83.01;100283.53;5029720;28;20040;-63
2023/12/01 08:44:34;;;;;;;11.93;4.43;;;;;;;-1.13;82.60;100286.84;5029813;28;20041;-62
2023/12/01 08:46:59;;;;;;;10.82;4.78;;;;;;;-1.10;82.54;100289.69;5029514;28;20409;-61
2023/12/01 08:49:25;;;;;;;12.77;4.83;;;;;;;-0.97;82.64;100289.84;5028912;28;20029;-61
2023/12/01 08:51:54;;;;;;;13.90;5.47;;;;;;;-0.89;81.91;100293.06;5029695;28;20111;-62
2023/12/01 08:54:19;;;;;;;11.57;4.03;;;;;;;-0.92;81.23;100292.81;5037156;28;20091;-61
2023/12/01 08:56:44;;;;;;;14.63;5.23;;;;;;;-0.97;80.92;100297.63;5029451;28;20505;-62
2023/12/01 08:59:10;;;;;;;13.07;5.07;;;;;;;-1.03;80.87;100298.81;5028977;28;20112;-62
2023/12/01 09:01:35;;;;;;;13.13;5.27;;;;;;;-1.09;80.99;100303.56;5029575;28;20037;-60
2023/12/01 09:04:01;;;;;;;15.07;4.67;;;;;;;-1.07;81.04;100315.81;5031672;28;20367;-63
2023/12/01 09:06:26;;;;;;;13.60;5.83;;;;;;;-1.06;80.82;100315.06;5033842;28;20029;-62
2023/12/01 09:08:51;;;;;;;12.57;5.13;;;;;;;-0.95;80.61;100321.09;5033318;28;20113;-61
2023/12/01 09:11:17;;;;;;;12.33;4.67;;;;;;;-0.93;80.48;100309.13;5033238;28;20045;-62
2023/12/01 09:13:42;;;;;;;14.13;5.23;;;;;;;-0.91;80.43;100313.69;5033657;28;20486;-63
2023/12/01 09:16:08;;;;;;;13.33;5.53;;;;;;;-0.88;80.75;100323.38;5033570;28;20302;-62
2023/12/01 09:18:33;;;;;;;13.27;4.70;;;;;;;-0.99;81.00;100319.91;5033569;28;20176;-64
2023/12/01 09:20:59;;;;;;;15.07;5.93;;;;;;;-1.08;80.84;100321.78;5032996;28;20037;-63
2023/12/01 09:23:24;;;;;;;14.80;5.07;;;;;;;-1.08;81.05;100326.97;5033518;28;20280;-64
2023/12/01 09:25:50;;;;;;;13.63;5.70;;;;;;;-1.09;80.94;100322.59;5033796;28;20044;-63
2023/12/01 09:28:16;;;;;;;12.52;4.95;;;;;;;-1.16;81.25;100315.09;5033196;28;20037;-62
2023/12/01 09:30:41;;;;;;;12.50;5.30;;;;;;;-1.23;81.41;100311.91;5032840;28;20033;-64
2023/12/01 09:33:07;;;;;;;12.33;4.77;;;;;;;-1.25;81.69;100318.66;5033284;28;20038;-63
2023/12/01 09:35:32;;;;;;;13.50;5.77;;;;;;;-1.33;81.20;100321.53;5033722;28;20691;-63
2023/12/01 09:37:57;;;;;;;15.17;4.80;;;;;;;-1.41;81.23;100327.78;5033771;28;20116;-62
2023/12/01 09:40:24;;;;;;;13.17;4.57;;;;;;;-1.44;81.82;100326.63;5033298;28;20048;-63
2023/12/01 09:42:50;;;;;;;15.18;5.63;;;;;;;-1.46;81.60;100326.50;5033197;28;20048;-66
2023/12/01 09:45:22;;;;;;;15.05;5.32;;;;;;;-1.53;81.78;100321.59;5032942;28;20041;-63
2023/12/01 09:47:57;;;;;;;12.65;4.80;;;;;;;-1.50;82.24;100319.28;5032639;28;20109;-63
2023/12/01 09:50:23;;;;;;;13.20;4.50;;;;;;;-1.34;82.17;100318.81;5032194;28;20091;-64
2023/12/01 09:52:49;;;;;;;14.20;5.53;;;;;;;-1.17;81.56;100313.28;5032975;28;20436;-63
2023/12/01 09:55:14;;;;;;;16.40;6.40;;;;;;;-1.03;81.25;100312.69;5040943;28;20366;-63
2023/12/01 09:57:41;;;;;;;12.95;5.10;;;;;;;-0.87;80.82;100309.63;5032576;28;20451;-63
2023/12/01 10:00:11;;;;;;;17.30;6.03;;;;;;;-0.78;80.59;100315.53;5032232;28;20068;-65
2023/12/01 10:02:38;;;;;;;15.10;5.72;;;;;;;-0.62;80.39;100309.84;5031508;28;20121;-64
2023/12/01 10:05:05;;;;;;;15.43;4.90;;;;;;;-0.50;79.82;100310.81;5032823;28;20049;-65
2023/12/01 10:07:30;;;;;;;13.82;5.82;;;;;;;-0.40;79.94;100304.63;5032717;28;20041;-64
2023/12/01 10:09:55;;;;;;;14.23;5.50;;;;;;;-0.30;79.51;100313.25;5031690;28;20587;-62
2023/12/01 10:12:21;;;;;;;13.87;5.23;;;;;;;-0.24;79.61;100313.69;5032512;28;20268;-62
2023/12/01 10:17:14;;;;;;;13.90;5.80;;;;;;;-0.19;79.20;100304.56;5108397;27;20412;-63
2023/12/01 10:19:47;;;;;;;15.85;5.15;;;;;;;-0.11;79.59;100299.97;5108082;28;20528;-64
2023/12/01 10:22:15;;;;;;;13.18;5.25;;;;;;;-0.08;79.58;100297.59;5096738;28;20037;-64
2023/12/01 10:24:52;;;;;;;15.10;5.90;;;;;;;-0.05;79.29;100305.63;5087855;28;20036;-64
2023/12/01 10:27:18;;;;;;;17.87;6.33;;;;;;;0.00;79.27;100299.09;5087773;28;20036;-63
2023/12/01 10:29:44;;;;;;;12.82;5.15;;;;;;;0.10;79.22;100295.47;5087512;28;20024;-63
2023/12/01 10:32:11;;;;;;;14.95;6.63;;;;;;;0.15;79.43;100292.41;5087785;28;20048;-63
2023/12/01 10:34:38;;;;;;;14.10;5.93;;;;;;;0.20;78.71;100290.19;5087592;28;20032;-62
2023/12/01 10:37:04;;;;;;;15.25;5.47;;;;;;;0.15;79.02;100292.41;5087920;28;20082;-62
2023/12/01 10:39:30;;;;;;;16.50;6.70;;;;;;;0.18;78.89;100294.34;5079058;28;20123;-63
2023/12/01 10:41:57;;;;;;;13.88;5.50;;;;;;;0.23;78.71;100293.91;5087567;28;20028;-63
2023/12/01 10:44:25;;;;;;;19.10;6.28;;;;;;;0.30;78.76;100293.53;5095048;28;20058;-62
2023/12/01 10:46:52;;;;;;;16.50;6.05;;;;;;;0.36;78.82;100296.59;5087964;28;20024;-63
2023/12/01 10:49:18;;;;;;;10.63;4.93;;;;;;;0.42;78.21;100296.16;5087152;28;20105;-63
2023/12/01 10:51:45;;;;;;;14.37;5.90;;;;;;;0.40;77.75;100296.03;5087838;28;20024;-64
2023/12/01 10:54:12;;;;;;;16.45;7.05;;;;;;;0.39;77.58;100291.66;5095802;28;20028;-63
2023/12/01 10:57:17;;;;;;;16.25;6.65;;;;;;;0.31;77.80;100282.38;5095801;28;20036;-62
2023/12/01 10:59:48;;;;;;;14.00;5.47;;;;;;;0.41;78.04;100291.75;5077491;28;20063;-64
2023/12/01 11:02:14;;;;;;;15.43;5.68;;;;;;;0.51;78.17;100295.91;5086985;28;20083;-62
2023/12/01 11:04:42;;;;;;;15.97;5.83;;;;;;;0.57;77.77;100292.06;5087297;28;20115;-63
2023/12/01 11:07:16;;;;;;;16.80;5.65;;;;;;;0.58;77.40;100299.09;5085870;28;20515;-63
2023/12/01 11:10:07;;;;;;;16.65;6.82;;;;;;;0.59;78.09;100300.00;5086456;28;20090;-62
2023/12/01 11:13:15;;;;;;;15.07;5.78;;;;;;;0.59;77.74;100287.00;5079136;28;20046;-63
2023/12/01 11:15:43;;;;;;;14.52;5.70;;;;;;;0.65;77.70;100290.00;5087108;28;20064;-64
2023/12/01 11:18:08;;;;;;;15.00;5.97;;;;;;;0.69;77.59;100287.75;5087162;28;20054;-63
2023/12/01 11:20:35;;;;;;;17.05;5.60;;;;;;;0.75;77.38;100288.19;5086519;28;20115;-64
2023/12/01 11:23:09;;;;;;;16.63;5.23;;;;;;;0.81;76.94;100287.72;5086693;28;20090;-62
2023/12/01 11:25:48;;;;;;;12.90;4.75;;;;;;;0.83;77.06;100280.97;5087095;28;20059;-64
2023/12/01 11:28:22;;;;;;;17.60;5.78;;;;;;;0.88;76.99;100279.59;5075037;28;20554;-65
2023/12/01 11:31:09;;;;;;;16.80;6.18;;;;;;;0.96;76.87;100280.13;5073171;28;20060;-65
2023/12/01 11:33:40;;;;;;;15.02;5.20;;;;;;;1.04;76.55;100285.06;5073190;28;20039;-64
2023/12/01 11:36:25;;;;;;;13.97;5.50;;;;;;;1.06;76.27;100283.47;5073093;28;20051;-62